sensor_id;sensor_type;location;lat;lon;timestamp;P1;durP1;ratioP1;P2;durP2;ratioP2
72095;SDS011;59968;51.084;16.748;2023-01-24T00:02:10;53.60;;;14.70;;
72095;SDS011;59968;51.084;16.748;2023-01-24T00:04:38;51.70;;;14.40;;
72095;SDS011;59968;51.084;16.748;2023-01-24T00:07:07;54.80;;;15.30;;
72095;SDS011;59968;51.084;16.748;2023-01-24T00:09:35;56.60;;;15.20;;
72095;SDS011;59968;51.084;16.748;2023-01-24T00:12:04;52.00;;;15.50;;
72095;SDS011;59968;51.084;16.748;2023-01-24T00:14:32;57.10;;;15.50;;
72095;SDS011;59968;51.084;16.748;2023-01-24T00:17:01;47.60;;;15.20;;
72095;SDS011;59968;51.084;16.748;2023-01-24T00:19:29;52.90;;;15.80;;
72095;SDS011;59968;51.084;16.748;2023-01-24T00:21:58;45.50;;;13.40;;
72095;SDS011;59968;51.084;16.748;2023-01-24T00:24:27;53.60;;;14.90;;
72095;SDS011;59968;51.084;16.748;2023-01-24T00:26:57;44.20;;;13.50;;
72095;SDS011;59968;51.084;16.748;2023-01-24T00:29:25;43.50;;;14.40;;
72095;SDS011;59968;51.084;16.748;2023-01-24T00:31:53;50.60;;;14.50;;
72095;SDS011;59968;51.084;16.748;2023-01-24T00:34:22;48.70;;;14.00;;
72095;SDS011;59968;51.084;16.748;2023-01-24T00:36:50;49.80;;;14.80;;
72095;SDS011;59968;51.084;16.748;2023-01-24T00:39:18;41.60;;;13.00;;
72095;SDS011;59968;51.084;16.748;2023-01-24T00:41:46;52.90;;;15.10;;
72095;SDS011;59968;51.084;16.748;2023-01-24T00:44:15;46.50;;;14.10;;
72095;SDS011;59968;51.084;16.748;2023-01-24T00:46:43;49.20;;;14.50;;
72095;SDS011;59968;51.084;16.748;2023-01-24T00:49:11;55.40;;;15.80;;
72095;SDS011;59968;51.084;16.748;2023-01-24T00:51:40;48.80;;;14.70;;
72095;SDS011;59968;51.084;16.748;2023-01-24T00:54:09;50.20;;;15.20;;
72095;SDS011;59968;51.084;16.748;2023-01-24T00:56:37;42.10;;;13.00;;
72095;SDS011;59968;51.084;16.748;2023-01-24T00:59:05;42.90;;;12.20;;
72095;SDS011;59968;51.084;16.748;2023-01-24T01:01:34;51.20;;;15.00;;
72095;SDS011;59968;51.084;16.748;2023-01-24T01:04:02;49.60;;;14.70;;
72095;SDS011;59968;51.084;16.748;2023-01-24T01:06:30;53.10;;;15.60;;
72095;SDS011;59968;51.084;16.748;2023-01-24T01:08:59;48.80;;;15.40;;
72095;SDS011;59968;51.084;16.748;2023-01-24T01:11:28;46.90;;;13.90;;
72095;SDS011;59968;51.084;16.748;2023-01-24T01:13:59;40.30;;;11.50;;
72095;SDS011;59968;51.084;16.748;2023-01-24T01:16:27;49.70;;;15.20;;
72095;SDS011;59968;51.084;16.748;2023-01-24T01:18:56;52.60;;;15.80;;
72095;SDS011;59968;51.084;16.748;2023-01-24T01:21:25;46.90;;;13.50;;
72095;SDS011;59968;51.084;16.748;2023-01-24T01:23:53;48.30;;;13.30;;
72095;SDS011;59968;51.084;16.748;2023-01-24T01:26:22;53.20;;;15.90;;
72095;SDS011;59968;51.084;16.748;2023-01-24T01:28:51;52.70;;;15.60;;
72095;SDS011;59968;51.084;16.748;2023-01-24T01:31:20;55.80;;;16.60;;
72095;SDS011;59968;51.084;16.748;2023-01-24T01:33:48;49.80;;;14.70;;
72095;SDS011;59968;51.084;16.748;2023-01-24T01:36:17;43.10;;;12.50;;
72095;SDS011;59968;51.084;16.748;2023-01-24T01:38:45;49.30;;;14.60;;
72095;SDS011;59968;51.084;16.748;2023-01-24T01:41:13;40.50;;;12.50;;
72095;SDS011;59968;51.084;16.748;2023-01-24T01:43:42;49.80;;;16.20;;
72095;SDS011;59968;51.084;16.748;2023-01-24T01:46:33;50.70;;;15.40;;
72095;SDS011;59968;51.084;16.748;2023-01-24T01:49:14;53.70;;;15.30;;
72095;SDS011;59968;51.084;16.748;2023-01-24T01:51:51;53.70;;;16.40;;
72095;SDS011;59968;51.084;16.748;2023-01-24T01:54:25;49.90;;;16.20;;
72095;SDS011;59968;51.084;16.748;2023-01-24T01:56:59;64.10;;;19.00;;
72095;SDS011;59968;51.084;16.748;2023-01-24T01:59:43;71.20;;;20.70;;
72095;SDS011;59968;51.084;16.748;2023-01-24T02:02:16;54.20;;;17.10;;
72095;SDS011;59968;51.084;16.748;2023-01-24T02:04:51;53.60;;;16.60;;
72095;SDS011;59968;51.084;16.748;2023-01-24T02:07:26;66.10;;;22.80;;
72095;SDS011;59968;51.084;16.748;2023-01-24T02:09:59;65.30;;;22.50;;
72095;SDS011;59968;51.084;16.748;2023-01-24T02:12:30;67.10;;;24.40;;
72095;SDS011;59968;51.084;16.748;2023-01-24T02:15:04;64.80;;;21.00;;
72095;SDS011;59968;51.084;16.748;2023-01-24T02:17:53;57.20;;;17.50;;
72095;SDS011;59968;51.084;16.748;2023-01-24T02:28:33;53.50;;;17.80;;
72095;SDS011;59968;51.084;16.748;2023-01-24T02:31:03;54.40;;;16.80;;
72095;SDS011;59968;51.084;16.748;2023-01-24T02:33:32;53.10;;;17.70;;
72095;SDS011;59968;51.084;16.748;2023-01-24T02:38:53;59.70;;;18.20;;
72095;SDS011;59968;51.084;16.748;2023-01-24T02:41:26;53.50;;;16.90;;
72095;SDS011;59968;51.084;16.748;2023-01-24T02:43:58;53.70;;;18.00;;
72095;SDS011;59968;51.084;16.748;2023-01-24T02:46:31;53.90;;;17.80;;
72095;SDS011;59968;51.084;16.748;2023-01-24T02:49:07;47.70;;;15.90;;
72095;SDS011;59968;51.084;16.748;2023-01-24T02:51:37;55.70;;;16.10;;
72095;SDS011;59968;51.084;16.748;2023-01-24T02:54:24;54.30;;;16.40;;
72095;SDS011;59968;51.084;16.748;2023-01-24T02:56:52;53.70;;;17.30;;
72095;SDS011;59968;51.084;16.748;2023-01-24T02:59:39;51.50;;;17.10;;
72095;SDS011;59968;51.084;16.748;2023-01-24T03:02:08;50.80;;;16.80;;
72095;SDS011;59968;51.084;16.748;2023-01-24T03:04:36;49.90;;;16.60;;
72095;SDS011;59968;51.084;16.748;2023-01-24T03:07:05;46.10;;;16.80;;
72095;SDS011;59968;51.084;16.748;2023-01-24T03:09:33;48.90;;;16.50;;
72095;SDS011;59968;51.084;16.748;2023-01-24T03:12:04;49.90;;;16.10;;
72095;SDS011;59968;51.084;16.748;2023-01-24T03:14:56;49.10;;;17.00;;
72095;SDS011;59968;51.084;16.748;2023-01-24T03:17:43;46.30;;;16.10;;
72095;SDS011;59968;51.084;16.748;2023-01-24T03:20:31;48.60;;;15.40;;
72095;SDS011;59968;51.084;16.748;2023-01-24T03:23:18;47.90;;;16.20;;
72095;SDS011;59968;51.084;16.748;2023-01-24T03:26:05;51.20;;;16.60;;
72095;SDS011;59968;51.084;16.748;2023-01-24T03:28:52;49.40;;;15.90;;
72095;SDS011;59968;51.084;16.748;2023-01-24T03:31:40;49.50;;;15.70;;
72095;SDS011;59968;51.084;16.748;2023-01-24T03:34:27;44.90;;;14.00;;
72095;SDS011;59968;51.084;16.748;2023-01-24T03:37:01;48.50;;;16.10;;
72095;SDS011;59968;51.084;16.748;2023-01-24T03:39:31;51.50;;;16.60;;
72095;SDS011;59968;51.084;16.748;2023-01-24T03:42:18;49.90;;;16.20;;
72095;SDS011;59968;51.084;16.748;2023-01-24T03:44:47;48.80;;;16.90;;
72095;SDS011;59968;51.084;16.748;2023-01-24T03:47:15;48.80;;;17.20;;
72095;SDS011;59968;51.084;16.748;2023-01-24T03:49:43;49.70;;;15.80;;
72095;SDS011;59968;51.084;16.748;2023-01-24T03:52:30;48.60;;;15.80;;
72095;SDS011;59968;51.084;16.748;2023-01-24T03:55:03;45.80;;;15.60;;
72095;SDS011;59968;51.084;16.748;2023-01-24T03:57:32;47.00;;;15.10;;
72095;SDS011;59968;51.084;16.748;2023-01-24T04:00:03;47.60;;;16.10;;
72095;SDS011;59968;51.084;16.748;2023-01-24T04:02:43;49.60;;;16.40;;
72095;SDS011;59968;51.084;16.748;2023-01-24T04:05:14;44.90;;;15.40;;
72095;SDS011;59968;51.084;16.748;2023-01-24T04:07:43;51.00;;;16.50;;
72095;SDS011;59968;51.084;16.748;2023-01-24T04:10:12;44.50;;;15.70;;
72095;SDS011;59968;51.084;16.748;2023-01-24T04:12:46;48.90;;;16.20;;
72095;SDS011;59968;51.084;16.748;2023-01-24T04:15:19;50.70;;;15.90;;
72095;SDS011;59968;51.084;16.748;2023-01-24T04:17:57;48.20;;;15.80;;
72095;SDS011;59968;51.084;16.748;2023-01-24T04:20:28;48.90;;;16.40;;
72095;SDS011;59968;51.084;16.748;2023-01-24T04:23:01;47.20;;;16.00;;
72095;SDS011;59968;51.084;16.748;2023-01-24T04:25:34;43.30;;;15.70;;
72095;SDS011;59968;51.084;16.748;2023-01-24T04:28:03;46.40;;;16.30;;
72095;SDS011;59968;51.084;16.748;2023-01-24T04:30:34;38.60;;;13.60;;
72095;SDS011;59968;51.084;16.748;2023-01-24T04:33:03;48.10;;;16.40;;
72095;SDS011;59968;51.084;16.748;2023-01-24T04:35:32;49.20;;;16.40;;
72095;SDS011;59968;51.084;16.748;2023-01-24T04:38:00;42.80;;;14.80;;
72095;SDS011;59968;51.084;16.748;2023-01-24T04:41:02;44.80;;;14.40;;
72095;SDS011;59968;51.084;16.748;2023-01-24T04:43:37;42.20;;;13.90;;
72095;SDS011;59968;51.084;16.748;2023-01-24T04:46:06;36.30;;;11.60;;
72095;SDS011;59968;51.084;16.748;2023-01-24T04:48:48;43.50;;;14.90;;
72095;SDS011;59968;51.084;16.748;2023-01-24T04:51:16;42.40;;;14.70;;
72095;SDS011;59968;51.084;16.748;2023-01-24T04:53:45;43.40;;;14.30;;
72095;SDS011;59968;51.084;16.748;2023-01-24T04:56:15;45.60;;;15.00;;
72095;SDS011;59968;51.084;16.748;2023-01-24T04:58:43;45.40;;;14.70;;
72095;SDS011;59968;51.084;16.748;2023-01-24T05:01:12;44.50;;;15.00;;
72095;SDS011;59968;51.084;16.748;2023-01-24T05:03:51;43.30;;;14.70;;
72095;SDS011;59968;51.084;16.748;2023-01-24T05:06:27;44.30;;;15.10;;
72095;SDS011;59968;51.084;16.748;2023-01-24T05:08:57;41.90;;;13.90;;
72095;SDS011;59968;51.084;16.748;2023-01-24T05:11:31;47.50;;;14.40;;
72095;SDS011;59968;51.084;16.748;2023-01-24T05:14:02;45.90;;;14.80;;
72095;SDS011;59968;51.084;16.748;2023-01-24T05:16:31;40.70;;;14.10;;
72095;SDS011;59968;51.084;16.748;2023-01-24T05:18:59;42.90;;;14.50;;
72095;SDS011;59968;51.084;16.748;2023-01-24T05:21:27;37.40;;;11.80;;
72095;SDS011;59968;51.084;16.748;2023-01-24T05:23:56;43.40;;;14.30;;
72095;SDS011;59968;51.084;16.748;2023-01-24T05:26:25;42.90;;;14.70;;
72095;SDS011;59968;51.084;16.748;2023-01-24T05:28:54;41.50;;;14.30;;
72095;SDS011;59968;51.084;16.748;2023-01-24T05:31:23;37.90;;;11.90;;
72095;SDS011;59968;51.084;16.748;2023-01-24T05:33:52;41.00;;;13.70;;
72095;SDS011;59968;51.084;16.748;2023-01-24T05:36:21;40.70;;;13.60;;
72095;SDS011;59968;51.084;16.748;2023-01-24T05:38:51;38.60;;;14.50;;
72095;SDS011;59968;51.084;16.748;2023-01-24T05:41:20;40.30;;;13.30;;
72095;SDS011;59968;51.084;16.748;2023-01-24T05:43:51;42.10;;;14.50;;
72095;SDS011;59968;51.084;16.748;2023-01-24T05:46:24;39.90;;;13.20;;
72095;SDS011;59968;51.084;16.748;2023-01-24T05:49:12;39.30;;;13.80;;
72095;SDS011;59968;51.084;16.748;2023-01-24T05:51:42;44.50;;;14.40;;
72095;SDS011;59968;51.084;16.748;2023-01-24T05:54:12;33.00;;;11.10;;
72095;SDS011;59968;51.084;16.748;2023-01-24T05:57:01;36.20;;;12.00;;
72095;SDS011;59968;51.084;16.748;2023-01-24T05:59:40;42.10;;;14.60;;
72095;SDS011;59968;51.084;16.748;2023-01-24T06:02:08;41.40;;;14.80;;
72095;SDS011;59968;51.084;16.748;2023-01-24T06:04:37;42.90;;;14.90;;
72095;SDS011;59968;51.084;16.748;2023-01-24T06:07:06;40.40;;;14.50;;
72095;SDS011;59968;51.084;16.748;2023-01-24T06:09:34;38.20;;;13.10;;
72095;SDS011;59968;51.084;16.748;2023-01-24T06:12:02;39.30;;;13.80;;
72095;SDS011;59968;51.084;16.748;2023-01-24T06:14:31;39.80;;;14.60;;
72095;SDS011;59968;51.084;16.748;2023-01-24T06:17:00;38.90;;;13.70;;
72095;SDS011;59968;51.084;16.748;2023-01-24T06:19:29;40.00;;;13.50;;
72095;SDS011;59968;51.084;16.748;2023-01-24T06:22:22;40.10;;;12.90;;
72095;SDS011;59968;51.084;16.748;2023-01-24T06:24:52;40.40;;;13.80;;
72095;SDS011;59968;51.084;16.748;2023-01-24T06:27:29;47.60;;;15.50;;
72095;SDS011;59968;51.084;16.748;2023-01-24T06:29:58;40.00;;;14.90;;
72095;SDS011;59968;51.084;16.748;2023-01-24T06:32:39;39.40;;;13.30;;
72095;SDS011;59968;51.084;16.748;2023-01-24T06:35:41;43.60;;;14.20;;
72095;SDS011;59968;51.084;16.748;2023-01-24T06:38:17;40.80;;;14.10;;
72095;SDS011;59968;51.084;16.748;2023-01-24T06:40:57;36.80;;;12.70;;
72095;SDS011;59968;51.084;16.748;2023-01-24T06:43:27;42.60;;;15.30;;
72095;SDS011;59968;51.084;16.748;2023-01-24T06:45:56;43.30;;;15.00;;
72095;SDS011;59968;51.084;16.748;2023-01-24T06:48:25;41.90;;;14.80;;
72095;SDS011;59968;51.084;16.748;2023-01-24T06:50:53;41.80;;;14.70;;
72095;SDS011;59968;51.084;16.748;2023-01-24T06:53:22;33.80;;;12.40;;
72095;SDS011;59968;51.084;16.748;2023-01-24T06:55:50;34.10;;;13.10;;
72095;SDS011;59968;51.084;16.748;2023-01-24T06:58:19;39.90;;;13.70;;
72095;SDS011;59968;51.084;16.748;2023-01-24T07:00:48;35.70;;;12.80;;
72095;SDS011;59968;51.084;16.748;2023-01-24T07:03:16;40.90;;;14.10;;
72095;SDS011;59968;51.084;16.748;2023-01-24T07:05:44;40.40;;;14.90;;
72095;SDS011;59968;51.084;16.748;2023-01-24T07:08:13;44.10;;;14.50;;
72095;SDS011;59968;51.084;16.748;2023-01-24T07:10:47;41.40;;;14.10;;
72095;SDS011;59968;51.084;16.748;2023-01-24T07:13:16;43.90;;;14.40;;
72095;SDS011;59968;51.084;16.748;2023-01-24T07:15:44;43.20;;;14.90;;
72095;SDS011;59968;51.084;16.748;2023-01-24T07:18:13;44.80;;;14.10;;
72095;SDS011;59968;51.084;16.748;2023-01-24T07:20:44;38.40;;;13.00;;
72095;SDS011;59968;51.084;16.748;2023-01-24T07:23:16;43.70;;;14.30;;
72095;SDS011;59968;51.084;16.748;2023-01-24T07:25:49;38.10;;;13.30;;
72095;SDS011;59968;51.084;16.748;2023-01-24T07:28:19;39.60;;;14.60;;
72095;SDS011;59968;51.084;16.748;2023-01-24T07:30:48;40.50;;;13.50;;
72095;SDS011;59968;51.084;16.748;2023-01-24T07:33:17;35.70;;;13.10;;
72095;SDS011;59968;51.084;16.748;2023-01-24T07:35:45;37.10;;;13.90;;
72095;SDS011;59968;51.084;16.748;2023-01-24T07:38:14;43.40;;;14.60;;
72095;SDS011;59968;51.084;16.748;2023-01-24T07:40:42;37.40;;;13.00;;
72095;SDS011;59968;51.084;16.748;2023-01-24T07:43:11;40.20;;;13.00;;
72095;SDS011;59968;51.084;16.748;2023-01-24T07:45:40;30.80;;;10.00;;
72095;SDS011;59968;51.084;16.748;2023-01-24T07:48:08;37.90;;;13.60;;
72095;SDS011;59968;51.084;16.748;2023-01-24T07:50:37;42.10;;;15.60;;
72095;SDS011;59968;51.084;16.748;2023-01-24T07:53:05;44.50;;;14.80;;
72095;SDS011;59968;51.084;16.748;2023-01-24T07:55:34;54.60;;;15.80;;
72095;SDS011;59968;51.084;16.748;2023-01-24T07:58:03;42.40;;;14.30;;
72095;SDS011;59968;51.084;16.748;2023-01-24T08:00:31;56.50;;;19.40;;
72095;SDS011;59968;51.084;16.748;2023-01-24T08:03:00;57.40;;;18.60;;
72095;SDS011;59968;51.084;16.748;2023-01-24T08:05:28;62.20;;;21.60;;
72095;SDS011;59968;51.084;16.748;2023-01-24T08:07:57;45.40;;;17.70;;
72095;SDS011;59968;51.084;16.748;2023-01-24T08:10:25;43.30;;;15.40;;
72095;SDS011;59968;51.084;16.748;2023-01-24T08:12:55;48.40;;;16.00;;
72095;SDS011;59968;51.084;16.748;2023-01-24T08:15:23;50.00;;;17.00;;
72095;SDS011;59968;51.084;16.748;2023-01-24T08:17:52;50.40;;;17.40;;
72095;SDS011;59968;51.084;16.748;2023-01-24T08:20:20;47.60;;;18.10;;
72095;SDS011;59968;51.084;16.748;2023-01-24T08:22:53;41.80;;;15.50;;
72095;SDS011;59968;51.084;16.748;2023-01-24T08:25:25;48.80;;;17.30;;
72095;SDS011;59968;51.084;16.748;2023-01-24T08:27:55;44.60;;;16.20;;
72095;SDS011;59968;51.084;16.748;2023-01-24T08:30:24;44.30;;;17.00;;
72095;SDS011;59968;51.084;16.748;2023-01-24T08:33:02;45.60;;;17.30;;
72095;SDS011;59968;51.084;16.748;2023-01-24T08:35:32;35.20;;;14.20;;
72095;SDS011;59968;51.084;16.748;2023-01-24T08:38:01;39.70;;;13.50;;
72095;SDS011;59968;51.084;16.748;2023-01-24T08:40:30;40.20;;;14.80;;
72095;SDS011;59968;51.084;16.748;2023-01-24T08:43:14;40.30;;;14.70;;
72095;SDS011;59968;51.084;16.748;2023-01-24T08:45:43;40.00;;;12.80;;
72095;SDS011;59968;51.084;16.748;2023-01-24T08:48:11;37.10;;;12.70;;
72095;SDS011;59968;51.084;16.748;2023-01-24T08:50:40;39.00;;;14.50;;
72095;SDS011;59968;51.084;16.748;2023-01-24T08:53:11;40.40;;;14.70;;
72095;SDS011;59968;51.084;16.748;2023-01-24T08:55:40;41.50;;;14.30;;
72095;SDS011;59968;51.084;16.748;2023-01-24T08:58:09;42.60;;;14.60;;
72095;SDS011;59968;51.084;16.748;2023-01-24T09:00:37;38.20;;;14.10;;
72095;SDS011;59968;51.084;16.748;2023-01-24T09:03:06;40.10;;;14.20;;
72095;SDS011;59968;51.084;16.748;2023-01-24T09:05:35;39.20;;;14.30;;
72095;SDS011;59968;51.084;16.748;2023-01-24T09:08:05;39.90;;;13.50;;
72095;SDS011;59968;51.084;16.748;2023-01-24T09:10:34;42.50;;;14.50;;
72095;SDS011;59968;51.084;16.748;2023-01-24T09:13:03;40.30;;;14.10;;
72095;SDS011;59968;51.084;16.748;2023-01-24T09:15:33;44.80;;;15.80;;
72095;SDS011;59968;51.084;16.748;2023-01-24T09:18:01;36.60;;;13.50;;
72095;SDS011;59968;51.084;16.748;2023-01-24T09:20:30;43.20;;;15.60;;
72095;SDS011;59968;51.084;16.748;2023-01-24T09:22:59;41.80;;;14.60;;
72095;SDS011;59968;51.084;16.748;2023-01-24T09:25:35;40.20;;;14.10;;
72095;SDS011;59968;51.084;16.748;2023-01-24T09:28:03;38.10;;;13.10;;
72095;SDS011;59968;51.084;16.748;2023-01-24T09:30:33;40.60;;;14.60;;
72095;SDS011;59968;51.084;16.748;2023-01-24T09:33:03;46.80;;;15.80;;
72095;SDS011;59968;51.084;16.748;2023-01-24T09:35:32;44.20;;;15.40;;
72095;SDS011;59968;51.084;16.748;2023-01-24T09:38:00;48.60;;;16.30;;
72095;SDS011;59968;51.084;16.748;2023-01-24T09:40:31;42.90;;;15.70;;
72095;SDS011;59968;51.084;16.748;2023-01-24T09:46:05;34.70;;;12.80;;
72095;SDS011;59968;51.084;16.748;2023-01-24T09:51:50;42.70;;;15.40;;
72095;SDS011;59968;51.084;16.748;2023-01-24T09:54:26;49.30;;;16.00;;
72095;SDS011;59968;51.084;16.748;2023-01-24T09:57:24;45.00;;;15.20;;
72095;SDS011;59968;51.084;16.748;2023-01-24T10:00:33;47.10;;;15.40;;
72095;SDS011;59968;51.084;16.748;2023-01-24T10:03:02;42.00;;;13.60;;
72095;SDS011;59968;51.084;16.748;2023-01-24T10:05:38;41.80;;;14.70;;
72095;SDS011;59968;51.084;16.748;2023-01-24T10:08:19;46.70;;;14.90;;
72095;SDS011;59968;51.084;16.748;2023-01-24T10:21:38;58.80;;;18.80;;
72095;SDS011;59968;51.084;16.748;2023-01-24T10:24:11;40.70;;;14.50;;
72095;SDS011;59968;51.084;16.748;2023-01-24T10:26:51;48.30;;;16.20;;
72095;SDS011;59968;51.084;16.748;2023-01-24T10:29:22;44.90;;;15.90;;
72095;SDS011;59968;51.084;16.748;2023-01-24T10:32:03;47.80;;;17.30;;
72095;SDS011;59968;51.084;16.748;2023-01-24T10:39:37;45.70;;;14.60;;
72095;SDS011;59968;51.084;16.748;2023-01-24T10:42:40;37.20;;;14.10;;
72095;SDS011;59968;51.084;16.748;2023-01-24T10:45:08;41.80;;;14.30;;
72095;SDS011;59968;51.084;16.748;2023-01-24T10:47:50;50.70;;;18.00;;
72095;SDS011;59968;51.084;16.748;2023-01-24T10:50:34;41.70;;;13.90;;
72095;SDS011;59968;51.084;16.748;2023-01-24T10:53:27;33.70;;;11.70;;
72095;SDS011;59968;51.084;16.748;2023-01-24T10:55:59;41.70;;;15.00;;
72095;SDS011;59968;51.084;16.748;2023-01-24T10:58:39;38.80;;;14.00;;
72095;SDS011;59968;51.084;16.748;2023-01-24T11:01:18;43.80;;;14.90;;
72095;SDS011;59968;51.084;16.748;2023-01-24T11:03:50;46.90;;;16.40;;
72095;SDS011;59968;51.084;16.748;2023-01-24T11:09:03;46.00;;;16.50;;
72095;SDS011;59968;51.084;16.748;2023-01-24T11:11:32;49.00;;;16.70;;
72095;SDS011;59968;51.084;16.748;2023-01-24T11:14:01;34.00;;;10.80;;
72095;SDS011;59968;51.084;16.748;2023-01-24T11:16:41;47.60;;;17.10;;
72095;SDS011;59968;51.084;16.748;2023-01-24T11:19:25;50.00;;;17.90;;
72095;SDS011;59968;51.084;16.748;2023-01-24T11:22:03;40.40;;;13.40;;
72095;SDS011;59968;51.084;16.748;2023-01-24T11:24:50;39.90;;;14.90;;
72095;SDS011;59968;51.084;16.748;2023-01-24T11:27:26;53.10;;;17.10;;
72095;SDS011;59968;51.084;16.748;2023-01-24T11:33:05;46.80;;;16.70;;
72095;SDS011;59968;51.084;16.748;2023-01-24T11:35:41;45.60;;;15.90;;
72095;SDS011;59968;51.084;16.748;2023-01-24T11:38:28;44.00;;;15.50;;
72095;SDS011;59968;51.084;16.748;2023-01-24T11:43:56;44.70;;;16.20;;
72095;SDS011;59968;51.084;16.748;2023-01-24T11:54:33;45.00;;;16.30;;
72095;SDS011;59968;51.084;16.748;2023-01-24T12:00:37;37.40;;;13.30;;
72095;SDS011;59968;51.084;16.748;2023-01-24T12:03:23;41.60;;;14.70;;
72095;SDS011;59968;51.084;16.748;2023-01-24T12:09:06;35.40;;;12.30;;
72095;SDS011;59968;51.084;16.748;2023-01-24T12:23:01;35.90;;;12.80;;
72095;SDS011;59968;51.084;16.748;2023-01-24T12:25:44;39.40;;;14.00;;
72095;SDS011;59968;51.084;16.748;2023-01-24T12:28:16;31.80;;;12.60;;
72095;SDS011;59968;51.084;16.748;2023-01-24T12:30:56;37.10;;;14.30;;
72095;SDS011;59968;51.084;16.748;2023-01-24T12:33:37;35.40;;;13.90;;
72095;SDS011;59968;51.084;16.748;2023-01-24T12:36:36;35.40;;;12.30;;
72095;SDS011;59968;51.084;16.748;2023-01-24T12:39:30;40.20;;;14.90;;
72095;SDS011;59968;51.084;16.748;2023-01-24T12:42:16;39.20;;;13.90;;
72095;SDS011;59968;51.084;16.748;2023-01-24T12:44:52;36.40;;;12.40;;
72095;SDS011;59968;51.084;16.748;2023-01-24T12:47:43;38.50;;;14.30;;
72095;SDS011;59968;51.084;16.748;2023-01-24T12:53:29;39.90;;;14.80;;
72095;SDS011;59968;51.084;16.748;2023-01-24T12:56:15;34.00;;;13.50;;
72095;SDS011;59968;51.084;16.748;2023-01-24T12:58:49;37.30;;;12.70;;
72095;SDS011;59968;51.084;16.748;2023-01-24T13:04:15;39.90;;;14.70;;
72095;SDS011;59968;51.084;16.748;2023-01-24T13:07:11;32.20;;;11.60;;
72095;SDS011;59968;51.084;16.748;2023-01-24T13:10:37;38.50;;;14.10;;
72095;SDS011;59968;51.084;16.748;2023-01-24T13:13:00;46.00;;;15.60;;
72095;SDS011;59968;51.084;16.748;2023-01-24T13:15:38;43.10;;;15.50;;
72095;SDS011;59968;51.084;16.748;2023-01-24T13:21:05;41.20;;;15.20;;
72095;SDS011;59968;51.084;16.748;2023-01-24T13:23:40;37.20;;;13.30;;
72095;SDS011;59968;51.084;16.748;2023-01-24T13:26:28;37.90;;;14.00;;
72095;SDS011;59968;51.084;16.748;2023-01-24T13:34:35;38.60;;;15.30;;
72095;SDS011;59968;51.084;16.748;2023-01-24T13:37:21;40.10;;;14.90;;
72095;SDS011;59968;51.084;16.748;2023-01-24T13:42:37;42.90;;;15.50;;
72095;SDS011;59968;51.084;16.748;2023-01-24T13:47:51;44.20;;;15.70;;
72095;SDS011;59968;51.084;16.748;2023-01-24T13:50:22;43.20;;;14.80;;
72095;SDS011;59968;51.084;16.748;2023-01-24T13:52:57;37.00;;;13.90;;
72095;SDS011;59968;51.084;16.748;2023-01-24T14:03:17;39.40;;;14.00;;
72095;SDS011;59968;51.084;16.748;2023-01-24T14:05:52;36.30;;;13.10;;
72095;SDS011;59968;51.084;16.748;2023-01-24T14:08:32;42.10;;;15.40;;
72095;SDS011;59968;51.084;16.748;2023-01-24T14:19:17;45.60;;;16.10;;
72095;SDS011;59968;51.084;16.748;2023-01-24T14:22:04;47.70;;;16.50;;
72095;SDS011;59968;51.084;16.748;2023-01-24T14:24:58;46.00;;;16.10;;
72095;SDS011;59968;51.084;16.748;2023-01-24T14:27:37;46.00;;;15.70;;
72095;SDS011;59968;51.084;16.748;2023-01-24T14:37:49;39.70;;;14.40;;
72095;SDS011;59968;51.084;16.748;2023-01-24T14:42:49;43.60;;;15.10;;
72095;SDS011;59968;51.084;16.748;2023-01-24T14:45:21;42.30;;;15.20;;
72095;SDS011;59968;51.084;16.748;2023-01-24T14:47:53;39.10;;;14.80;;
72095;SDS011;59968;51.084;16.748;2023-01-24T14:50:29;42.90;;;15.20;;
72095;SDS011;59968;51.084;16.748;2023-01-24T14:53:25;40.40;;;14.00;;
72095;SDS011;59968;51.084;16.748;2023-01-24T14:56:01;40.40;;;14.80;;
72095;SDS011;59968;51.084;16.748;2023-01-24T14:58:37;37.20;;;15.20;;
72095;SDS011;59968;51.084;16.748;2023-01-24T15:01:28;33.50;;;12.40;;
72095;SDS011;59968;51.084;16.748;2023-01-24T15:03:59;35.20;;;12.50;;
72095;SDS011;59968;51.084;16.748;2023-01-24T15:06:28;40.60;;;15.00;;
72095;SDS011;59968;51.084;16.748;2023-01-24T15:08:58;40.20;;;14.30;;
72095;SDS011;59968;51.084;16.748;2023-01-24T15:11:30;39.90;;;14.80;;
72095;SDS011;59968;51.084;16.748;2023-01-24T15:14:03;41.80;;;14.90;;
72095;SDS011;59968;51.084;16.748;2023-01-24T15:16:38;36.30;;;13.10;;
72095;SDS011;59968;51.084;16.748;2023-01-24T15:19:25;44.40;;;14.90;;
72095;SDS011;59968;51.084;16.748;2023-01-24T15:21:55;34.90;;;12.90;;
72095;SDS011;59968;51.084;16.748;2023-01-24T15:26:55;41.90;;;15.40;;
72095;SDS011;59968;51.084;16.748;2023-01-24T15:29:42;43.10;;;15.70;;
72095;SDS011;59968;51.084;16.748;2023-01-24T15:32:36;40.90;;;14.80;;
72095;SDS011;59968;51.084;16.748;2023-01-24T15:43:41;41.90;;;15.10;;
72095;SDS011;59968;51.084;16.748;2023-01-24T15:54:36;38.90;;;15.10;;
72095;SDS011;59968;51.084;16.748;2023-01-24T15:57:23;38.00;;;13.70;;
72095;SDS011;59968;51.084;16.748;2023-01-24T16:02:38;43.60;;;15.50;;
72095;SDS011;59968;51.084;16.748;2023-01-24T16:05:11;39.70;;;15.00;;
72095;SDS011;59968;51.084;16.748;2023-01-24T16:07:41;40.90;;;15.70;;
72095;SDS011;59968;51.084;16.748;2023-01-24T16:10:14;41.80;;;15.50;;
72095;SDS011;59968;51.084;16.748;2023-01-24T16:12:44;39.20;;;15.30;;
72095;SDS011;59968;51.084;16.748;2023-01-24T16:15:16;42.10;;;16.10;;
72095;SDS011;59968;51.084;16.748;2023-01-24T16:17:47;46.60;;;17.60;;
72095;SDS011;59968;51.084;16.748;2023-01-24T16:20:17;42.80;;;16.80;;
72095;SDS011;59968;51.084;16.748;2023-01-24T16:22:49;42.80;;;16.70;;
72095;SDS011;59968;51.084;16.748;2023-01-24T16:25:19;45.70;;;16.60;;
72095;SDS011;59968;51.084;16.748;2023-01-24T16:27:49;43.60;;;16.00;;
72095;SDS011;59968;51.084;16.748;2023-01-24T16:30:24;43.80;;;16.50;;
72095;SDS011;59968;51.084;16.748;2023-01-24T16:32:54;39.90;;;15.60;;
72095;SDS011;59968;51.084;16.748;2023-01-24T16:35:24;39.60;;;15.40;;
72095;SDS011;59968;51.084;16.748;2023-01-24T16:37:54;38.20;;;14.70;;
72095;SDS011;59968;51.084;16.748;2023-01-24T16:40:26;45.40;;;15.40;;
72095;SDS011;59968;51.084;16.748;2023-01-24T16:42:54;43.70;;;15.30;;
72095;SDS011;59968;51.084;16.748;2023-01-24T16:45:24;44.40;;;15.90;;
72095;SDS011;59968;51.084;16.748;2023-01-24T16:47:56;39.90;;;15.50;;
72095;SDS011;59968;51.084;16.748;2023-01-24T16:50:25;42.70;;;16.20;;
72095;SDS011;59968;51.084;16.748;2023-01-24T16:52:54;42.10;;;15.10;;
72095;SDS011;59968;51.084;16.748;2023-01-24T16:55:25;44.10;;;16.40;;
72095;SDS011;59968;51.084;16.748;2023-01-24T16:57:57;44.00;;;15.90;;
72095;SDS011;59968;51.084;16.748;2023-01-24T17:00:28;41.00;;;15.10;;
72095;SDS011;59968;51.084;16.748;2023-01-24T17:02:57;43.90;;;16.80;;